Irati, Brazil
Current Conditions -  °F | °C
As of 2:00 PM on Friday 19 Dec 2014 (Local Time) from SBCH Reporting Station
Scattered Clouds Scattered Clouds  
Wind Chill: 86°   Ceiling: Unl
Heat Index: 89°   Visibility: 6mi
Dew Point: 68°   Wind: 7mph
Humidity: 55%   Direction: 250°WSW
Pressure: 29.8"   Gusts: NA
Location:  26.66°S, 52.89°W
Report Text: SBCH 191600Z 25006KT 9999 SCT040 30/20 Q1009
Loading
Personal Weather Stations






























Interactive Weather Map New forecast layout! Learn more

10-Day Weather Forecast

Advertisements
Track Severe Weather on mobile